Time;durP1;ratioP1;P1;durP2;ratioP2;P2;SDS_P1;SDS_P2;PMS_P1;PMS_P2;Temp;Humidity;BMP_temperature;BMP_pressure;BME280_temperature;BME280_humidity;BME280_pressure;Samples;Min_cycle;Max_cycle;Signal;HPM_P1;HPM_P2
2023/09/28 00:01:26;;;;;;;18.55;16.80;;;;;;;;;;10220177;28;20052;-68
2023/09/28 00:06:23;;;;;;;18.52;16.63;;;;;;;;;;10216331;28;20432;-67
2023/09/28 00:11:20;;;;;;;18.95;17.02;;;;;;;;;;10213896;28;20224;-68
2023/09/28 00:16:16;;;;;;;18.85;17.15;;;;;;;;;;10212968;28;20069;-68
2023/09/28 00:21:13;;;;;;;18.42;15.75;;;;;;;;;;10212749;28;20668;-68
2023/09/28 00:26:09;;;;;;;17.73;16.25;;;;;;;;;;10217686;28;20762;-68
2023/09/28 00:31:06;;;;;;;17.60;16.02;;;;;;;;;;10209412;28;20046;-68
2023/09/28 00:36:02;;;;;;;17.65;15.75;;;;;;;;;;10217552;28;20045;-68
2023/09/28 00:40:59;;;;;;;16.52;15.15;;;;;;;;;;10214447;28;20056;-68
2023/09/28 00:45:55;;;;;;;17.17;15.43;;;;;;;;;;10236584;28;20521;-67
2023/09/28 00:50:52;;;;;;;17.40;15.80;;;;;;;;;;10222640;28;20490;-67
2023/09/28 00:55:48;;;;;;;18.00;16.13;;;;;;;;;;10220629;28;20132;-67
2023/09/28 01:00:44;;;;;;;17.20;15.52;;;;;;;;;;10213242;28;20510;-68
2023/09/28 01:05:41;;;;;;;15.88;14.57;;;;;;;;;;10205449;28;20045;-67
2023/09/28 01:10:40;;;;;;;15.38;14.18;;;;;;;;;;10212086;28;20057;-67
2023/09/28 01:15:40;;;;;;;16.77;15.15;;;;;;;;;;10217750;28;20050;-67
2023/09/28 01:20:37;;;;;;;15.48;14.10;;;;;;;;;;10217598;28;20142;-67
2023/09/28 01:25:34;;;;;;;16.42;15.02;;;;;;;;;;10218025;28;20045;-68
2023/09/28 01:30:30;;;;;;;17.10;15.50;;;;;;;;;;10216795;28;20532;-67
2023/09/28 01:35:27;;;;;;;17.10;15.70;;;;;;;;;;10229513;28;20051;-67
2023/09/28 01:40:23;;;;;;;16.15;14.82;;;;;;;;;;10206706;28;20112;-67
2023/09/28 01:45:20;;;;;;;17.35;15.95;;;;;;;;;;10218631;28;20519;-68
2023/09/28 01:50:18;;;;;;;17.23;15.88;;;;;;;;;;10221225;28;20555;-67
2023/09/28 01:55:15;;;;;;;18.98;17.30;;;;;;;;;;10214879;28;20051;-67
2023/09/28 02:00:29;;;;;;;18.63;17.20;;;;;;;;;;10203170;28;20103;-68
2023/09/28 02:05:29;;;;;;;19.05;17.27;;;;;;;;;;10220665;28;20065;-68
2023/09/28 02:10:25;;;;;;;17.63;15.95;;;;;;;;;;10211692;28;20544;-68
2023/09/28 02:15:23;;;;;;;17.65;16.17;;;;;;;;;;10203386;28;20053;-68
2023/09/28 02:20:22;;;;;;;18.35;16.85;;;;;;;;;;10212796;28;20038;-68
2023/09/28 02:25:22;;;;;;;18.25;16.40;;;;;;;;;;10218549;28;20045;-68
2023/09/28 02:30:20;;;;;;;19.52;17.98;;;;;;;;;;10224805;28;20045;-68
2023/09/28 02:35:16;;;;;;;20.38;18.27;;;;;;;;;;10218035;28;20104;-67
2023/09/28 02:40:14;;;;;;;20.08;18.20;;;;;;;;;;10227908;28;20115;-69
2023/09/28 02:45:11;;;;;;;19.20;17.48;;;;;;;;;;10215097;28;20045;-68
2023/09/28 02:50:11;;;;;;;17.45;15.95;;;;;;;;;;10219280;28;20061;-68
2023/09/28 02:55:08;;;;;;;18.63;16.58;;;;;;;;;;10222349;28;20050;-68
2023/09/28 03:00:17;;;;;;;21.20;19.20;;;;;;;;;;10218714;28;20081;-66
2023/09/28 03:05:16;;;;;;;19.60;18.00;;;;;;;;;;10214813;28;20037;-66
2023/09/28 03:10:13;;;;;;;19.23;17.45;;;;;;;;;;10222134;28;20164;-66
2023/09/28 03:15:10;;;;;;;20.63;18.65;;;;;;;;;;10222593;28;20050;-66
2023/09/28 03:20:14;;;;;;;20.75;19.00;;;;;;;;;;10229090;28;20470;-67
2023/09/28 03:25:17;;;;;;;22.67;19.23;;;;;;;;;;10215489;28;20045;-67
2023/09/28 03:30:16;;;;;;;20.15;18.33;;;;;;;;;;10216483;28;20628;-67
2023/09/28 03:35:13;;;;;;;20.95;19.08;;;;;;;;;;10219880;28;20045;-67
2023/09/28 03:40:10;;;;;;;20.40;18.30;;;;;;;;;;10207467;28;20563;-67
2023/09/28 03:45:11;;;;;;;21.13;19.15;;;;;;;;;;10211630;28;20905;-67
2023/09/28 03:50:09;;;;;;;20.30;18.65;;;;;;;;;;10199388;28;20053;-66
2023/09/28 03:55:10;;;;;;;23.02;20.95;;;;;;;;;;10207888;28;20049;-66
2023/09/28 04:00:08;;;;;;;23.38;21.38;;;;;;;;;;10216048;28;20113;-67
2023/09/28 04:05:05;;;;;;;22.92;20.75;;;;;;;;;;10210914;28;20072;-66
2023/09/28 04:10:01;;;;;;;22.65;20.60;;;;;;;;;;10207452;28;20073;-65
2023/09/28 04:14:58;;;;;;;23.05;20.95;;;;;;;;;;10210570;28;20053;-68
2023/09/28 04:19:54;;;;;;;21.83;20.02;;;;;;;;;;10216519;28;20570;-69
2023/09/28 04:24:50;;;;;;;21.13;19.42;;;;;;;;;;10208131;28;20045;-69
2023/09/28 04:29:47;;;;;;;21.63;19.45;;;;;;;;;;10225342;28;20060;-68
2023/09/28 04:34:43;;;;;;;22.13;20.40;;;;;;;;;;10215063;28;20107;-70
2023/09/28 04:39:40;;;;;;;22.42;20.38;;;;;;;;;;10222558;28;20057;-70
2023/09/28 04:44:37;;;;;;;23.88;21.63;;;;;;;;;;10211709;28;20490;-68
2023/09/28 04:49:33;;;;;;;23.60;21.38;;;;;;;;;;10207863;28;20421;-70
2023/09/28 04:54:32;;;;;;;21.98;19.83;;;;;;;;;;10215658;28;20423;-70
2023/09/28 04:59:28;;;;;;;23.52;21.20;;;;;;;;;;10206762;28;20037;-70
2023/09/28 05:04:25;;;;;;;22.33;20.27;;;;;;;;;;10216596;28;20040;-72
2023/09/28 05:09:21;;;;;;;22.08;19.98;;;;;;;;;;10212541;28;20042;-72
2023/09/28 05:14:19;;;;;;;24.73;21.67;;;;;;;;;;10210560;28;20441;-72
2023/09/28 05:19:16;;;;;;;22.17;20.08;;;;;;;;;;10215158;28;20060;-73
2023/09/28 05:24:13;;;;;;;23.60;21.30;;;;;;;;;;10214060;28;20042;-72
2023/09/28 05:29:10;;;;;;;23.38;21.17;;;;;;;;;;10199998;28;20054;-73
2023/09/28 05:34:06;;;;;;;23.73;21.63;;;;;;;;;;10207782;28;20156;-73
2023/09/28 05:39:03;;;;;;;23.10;20.83;;;;;;;;;;10204312;28;20663;-73
2023/09/28 05:43:59;;;;;;;21.90;19.98;;;;;;;;;;10201771;28;20046;-70
2023/09/28 05:48:56;;;;;;;21.70;19.83;;;;;;;;;;10215010;28;20127;-70
2023/09/28 05:53:53;;;;;;;22.00;19.95;;;;;;;;;;10217899;28;20053;-73
2023/09/28 05:58:50;;;;;;;25.70;21.23;;;;;;;;;;10216715;28;20053;-72
2023/09/28 06:03:46;;;;;;;22.65;20.55;;;;;;;;;;10221075;28;20563;-73
2023/09/28 06:08:43;;;;;;;21.80;19.60;;;;;;;;;;10211459;28;20053;-73
2023/09/28 06:13:41;;;;;;;22.45;20.20;;;;;;;;;;10206005;28;20063;-72
2023/09/28 06:18:56;;;;;;;21.88;19.60;;;;;;;;;;10227095;28;20475;-72
2023/09/28 06:23:53;;;;;;;22.63;20.67;;;;;;;;;;10213961;28;20049;-73
2023/09/28 06:28:49;;;;;;;21.75;19.50;;;;;;;;;;10226158;28;20097;-73
2023/09/28 06:33:46;;;;;;;22.23;19.98;;;;;;;;;;10223568;28;20060;-68
2023/09/28 06:38:42;;;;;;;22.98;19.65;;;;;;;;;;10206861;28;20084;-67
2023/09/28 06:43:39;;;;;;;21.40;19.50;;;;;;;;;;10229863;28;20444;-67
2023/09/28 06:48:35;;;;;;;20.70;18.77;;;;;;;;;;10215645;28;20053;-68
2023/09/28 06:53:32;;;;;;;21.33;19.25;;;;;;;;;;10214064;28;20053;-68
2023/09/28 06:58:29;;;;;;;22.83;20.80;;;;;;;;;;10233759;28;20568;-71
2023/09/28 07:03:26;;;;;;;21.45;19.15;;;;;;;;;;10221814;28;20049;-71
2023/09/28 07:08:22;;;;;;;21.38;18.88;;;;;;;;;;10215523;28;20092;-71
2023/09/28 07:13:19;;;;;;;20.25;18.23;;;;;;;;;;10228933;28;20048;-71
2023/09/28 07:18:15;;;;;;;20.85;18.67;;;;;;;;;;10229096;28;20038;-71
2023/09/28 07:23:11;;;;;;;20.48;18.48;;;;;;;;;;10217321;28;20049;-71
2023/09/28 07:28:08;;;;;;;21.90;19.63;;;;;;;;;;10218995;28;20040;-69
2023/09/28 07:33:04;;;;;;;19.80;17.73;;;;;;;;;;10221918;28;20033;-69
2023/09/28 07:38:01;;;;;;;19.40;17.60;;;;;;;;;;10224254;28;20042;-69
2023/09/28 07:42:59;;;;;;;21.27;18.73;;;;;;;;;;10219037;28;20046;-69
2023/09/28 07:47:55;;;;;;;19.40;17.42;;;;;;;;;;10217196;28;20041;-69
2023/09/28 07:52:52;;;;;;;19.45;17.42;;;;;;;;;;10210714;28;20104;-69
2023/09/28 07:57:48;;;;;;;18.63;16.75;;;;;;;;;;10217709;28;20403;-69
2023/09/28 08:02:53;;;;;;;19.23;17.30;;;;;;;;;;10218832;28;20063;-69
2023/09/28 08:07:49;;;;;;;19.52;17.35;;;;;;;;;;10223284;28;20046;-69
2023/09/28 08:13:03;;;;;;;18.30;16.45;;;;;;;;;;10212464;28;20049;-69
2023/09/28 08:18:00;;;;;;;19.45;17.38;;;;;;;;;;10209271;28;20042;-69
2023/09/28 08:22:57;;;;;;;19.23;17.38;;;;;;;;;;10213678;28;20048;-69
2023/09/28 08:27:54;;;;;;;18.80;16.95;;;;;;;;;;10219396;28;20038;-69
2023/09/28 08:32:52;;;;;;;20.50;15.98;;;;;;;;;;10220216;28;20072;-69
2023/09/28 08:37:49;;;;;;;19.77;16.90;;;;;;;;;;10214330;28;20051;-69
2023/09/28 08:42:46;;;;;;;18.55;16.77;;;;;;;;;;10212338;28;20494;-69
2023/09/28 08:47:46;;;;;;;14.40;13.05;;;;;;;;;;10204451;28;20497;-69
2023/09/28 08:52:44;;;;;;;13.52;12.13;;;;;;;;;;10217303;28;20509;-70
2023/09/28 08:57:40;;;;;;;12.90;11.63;;;;;;;;;;10213171;28;20111;-69
2023/09/28 09:02:37;;;;;;;11.48;10.48;;;;;;;;;;10215917;28;20048;-69
2023/09/28 09:07:36;;;;;;;14.32;9.95;;;;;;;;;;10215432;28;20074;-69
2023/09/28 09:12:35;;;;;;;11.98;10.60;;;;;;;;;;10220219;28;20563;-69
2023/09/28 09:17:33;;;;;;;11.50;10.10;;;;;;;;;;10205463;28;20866;-69
2023/09/28 09:22:29;;;;;;;12.02;10.15;;;;;;;;;;10208969;28;20111;-69
2023/09/28 09:27:40;;;;;;;11.88;10.68;;;;;;;;;;10211242;28;20049;-69
2023/09/28 09:32:38;;;;;;;11.30;9.70;;;;;;;;;;10214669;28;20054;-69
2023/09/28 09:37:39;;;;;;;14.95;11.32;;;;;;;;;;10206116;28;20045;-69
2023/09/28 09:42:36;;;;;;;12.32;10.93;;;;;;;;;;10213431;28;20073;-70
2023/09/28 09:47:32;;;;;;;12.73;11.43;;;;;;;;;;10208710;28;20058;-69
2023/09/28 09:52:29;;;;;;;11.35;10.35;;;;;;;;;;10220205;28;20116;-69
2023/09/28 09:57:27;;;;;;;12.20;10.75;;;;;;;;;;10225356;28;20045;-69
2023/09/28 10:02:25;;;;;;;11.27;10.27;;;;;;;;;;10211665;28;20041;-69
2023/09/28 10:07:24;;;;;;;13.80;9.98;;;;;;;;;;10208068;28;20060;-69
2023/09/28 10:12:40;;;;;;;10.52;9.55;;;;;;;;;;10214683;28;20564;-69
2023/09/28 10:17:37;;;;;;;11.32;8.75;;;;;;;;;;10208964;28;20107;-69
2023/09/28 10:22:34;;;;;;;9.98;9.10;;;;;;;;;;10222009;28;20103;-69
2023/09/28 10:27:33;;;;;;;10.23;8.77;;;;;;;;;;10216063;28;20045;-69
2023/09/28 10:32:30;;;;;;;10.82;8.95;;;;;;;;;;10212337;28;20399;-69
2023/09/28 10:37:27;;;;;;;11.13;9.38;;;;;;;;;;10220160;28;20072;-69
2023/09/28 10:42:24;;;;;;;9.95;9.02;;;;;;;;;;10208380;28;20478;-70
2023/09/28 10:47:21;;;;;;;10.60;9.38;;;;;;;;;;10220264;28;20045;-70
2023/09/28 10:52:17;;;;;;;9.65;8.55;;;;;;;;;;10218862;28;20042;-70
2023/09/28 10:57:14;;;;;;;9.80;8.63;;;;;;;;;;10226625;28;20050;-70
2023/09/28 11:02:11;;;;;;;11.43;9.63;;;;;;;;;;10221750;28;20519;-69
2023/09/28 11:07:08;;;;;;;9.90;9.00;;;;;;;;;;10207533;28;20140;-70
2023/09/28 11:12:08;;;;;;;11.20;9.90;;;;;;;;;;10211238;28;20065;-72
2023/09/28 11:17:05;;;;;;;10.43;9.32;;;;;;;;;;10212208;28;20167;-72
2023/09/28 11:22:01;;;;;;;18.52;10.38;;;;;;;;;;10218950;28;20056;-73
2023/09/28 11:26:58;;;;;;;12.13;9.70;;;;;;;;;;10213467;28;20572;-73
2023/09/28 11:31:54;;;;;;;25.88;12.90;;;;;;;;;;10227602;28;20080;-72
2023/09/28 11:36:52;;;;;;;10.43;9.38;;;;;;;;;;10219409;28;20587;-72
2023/09/28 11:41:58;;;;;;;11.63;9.75;;;;;;;;;;10228502;28;20094;-72
2023/09/28 11:46:55;;;;;;;12.05;9.60;;;;;;;;;;10266652;22;20072;-72
2023/09/28 11:51:54;;;;;;;12.98;10.32;;;;;;;;;;10262237;28;20052;-72
2023/09/28 11:56:52;;;;;;;13.38;10.60;;;;;;;;;;10259998;28;20045;-72
2023/09/28 12:01:51;;;;;;;10.63;9.63;;;;;;;;;;10256329;28;20132;-72
2023/09/28 12:06:48;;;;;;;11.32;9.52;;;;;;;;;;10258575;28;20501;-71
2023/09/28 12:11:45;;;;;;;11.52;9.23;;;;;;;;;;10261140;28;20132;-73
2023/09/28 12:16:42;;;;;;;10.73;9.77;;;;;;;;;;10256577;28;20578;-72
2023/09/28 12:21:45;;;;;;;10.93;9.98;;;;;;;;;;10256200;28;20045;-73
2023/09/28 12:26:41;;;;;;;11.52;9.50;;;;;;;;;;10255037;28;20515;-72
2023/09/28 12:31:37;;;;;;;11.45;9.65;;;;;;;;;;10258272;28;20049;-72
2023/09/28 12:36:34;;;;;;;15.98;10.02;;;;;;;;;;10254070;28;20059;-72
2023/09/28 12:41:30;;;;;;;18.38;9.55;;;;;;;;;;10251544;28;20053;-73
2023/09/28 12:46:27;;;;;;;16.20;9.65;;;;;;;;;;10256803;28;20114;-73
2023/09/28 12:51:23;;;;;;;11.48;8.82;;;;;;;;;;10266640;28;20049;-72
2023/09/28 12:56:20;;;;;;;17.35;9.30;;;;;;;;;;10259994;28;20136;-73
2023/09/28 13:01:16;;;;;;;9.68;8.68;;;;;;;;;;10257262;28;20046;-72
2023/09/28 13:06:12;;;;;;;12.73;9.00;;;;;;;;;;10256388;28;20163;-73
2023/09/28 13:11:10;;;;;;;12.68;9.40;;;;;;;;;;10265331;28;20041;-73
2023/09/28 13:16:08;;;;;;;9.05;7.85;;;;;;;;;;10252072;28;20090;-72
2023/09/28 13:21:04;;;;;;;13.07;8.80;;;;;;;;;;10255477;28;20420;-72
2023/09/28 13:26:00;;;;;;;12.15;9.02;;;;;;;;;;10264094;28;20048;-73
2023/09/28 13:30:57;;;;;;;10.52;8.27;;;;;;;;;;10267974;28;20078;-73
2023/09/28 13:35:55;;;;;;;10.95;9.15;;;;;;;;;;10268066;28;20064;-72
2023/09/28 13:40:52;;;;;;;16.02;8.88;;;;;;;;;;10249488;28;20053;-74
2023/09/28 13:46:08;;;;;;;9.10;8.20;;;;;;;;;;10260701;28;20090;-74
2023/09/28 13:51:05;;;;;;;13.45;8.77;;;;;;;;;;10265719;28;20059;-74
2023/09/28 13:56:03;;;;;;;11.60;8.80;;;;;;;;;;10258812;28;20044;-73
2023/09/28 14:00:59;;;;;;;11.32;8.68;;;;;;;;;;10263218;28;20037;-74
2023/09/28 14:05:57;;;;;;;9.90;8.00;;;;;;;;;;10264075;28;20053;-74
2023/09/28 14:10:53;;;;;;;13.73;8.98;;;;;;;;;;10262028;28;20049;-74
2023/09/28 14:15:50;;;;;;;9.40;8.23;;;;;;;;;;10269519;28;20531;-74
2023/09/28 14:20:46;;;;;;;11.48;8.52;;;;;;;;;;10264682;28;20041;-74
2023/09/28 14:25:42;;;;;;;10.63;9.02;;;;;;;;;;10265412;28;20100;-74
2023/09/28 14:30:38;;;;;;;11.55;8.65;;;;;;;;;;10264480;28;20131;-74
2023/09/28 14:35:35;;;;;;;11.93;8.80;;;;;;;;;;10260832;28;20123;-73
2023/09/28 14:40:31;;;;;;;10.15;8.82;;;;;;;;;;10261503;28;20455;-73
2023/09/28 14:45:28;;;;;;;12.90;9.10;;;;;;;;;;10258735;28;20111;-73
2023/09/28 14:50:24;;;;;;;12.77;8.75;;;;;;;;;;10271689;28;20416;-73
2023/09/28 14:55:21;;;;;;;12.20;9.25;;;;;;;;;;10265221;28;20048;-73
2023/09/28 15:00:18;;;;;;;9.95;8.85;;;;;;;;;;10272812;28;20049;-73
2023/09/28 15:05:14;;;;;;;9.43;8.45;;;;;;;;;;10256181;28;20464;-74
2023/09/28 15:10:11;;;;;;;9.68;8.73;;;;;;;;;;10263838;28;20069;-74
2023/09/28 15:15:08;;;;;;;17.60;9.20;;;;;;;;;;10261592;28;20063;-73
2023/09/28 15:20:05;;;;;;;12.90;8.82;;;;;;;;;;10267671;28;20041;-73
2023/09/28 15:25:02;;;;;;;11.43;8.90;;;;;;;;;;10259379;28;20048;-73
2023/09/28 15:29:58;;;;;;;10.68;8.43;;;;;;;;;;10269883;28;20501;-73
2023/09/28 15:34:54;;;;;;;12.85;9.00;;;;;;;;;;10268207;28;20232;-74
2023/09/28 15:39:51;;;;;;;9.63;8.63;;;;;;;;;;10261155;28;20041;-73
2023/09/28 15:44:47;;;;;;;14.20;9.20;;;;;;;;;;10257554;28;20052;-71
2023/09/28 15:49:44;;;;;;;9.63;8.60;;;;;;;;;;10266716;28;20053;-71
2023/09/28 15:54:40;;;;;;;10.05;9.00;;;;;;;;;;10266666;28;20040;-71
2023/09/28 15:59:37;;;;;;;10.10;8.80;;;;;;;;;;10266319;28;20517;-71
2023/09/28 16:04:34;;;;;;;11.35;9.20;;;;;;;;;;10264504;28;20069;-71
2023/09/28 16:09:30;;;;;;;12.98;9.38;;;;;;;;;;10253593;28;20045;-71
2023/09/28 16:14:26;;;;;;;12.00;8.80;;;;;;;;;;10266326;28;20482;-71
2023/09/28 16:19:23;;;;;;;12.35;8.90;;;;;;;;;;10268411;28;20549;-71
2023/09/28 16:24:19;;;;;;;10.75;8.65;;;;;;;;;;10264113;28;20054;-71
2023/09/28 16:29:16;;;;;;;13.68;9.15;;;;;;;;;;10269769;28;20100;-71
2023/09/28 16:34:12;;;;;;;13.63;8.75;;;;;;;;;;10265690;28;20110;-71
2023/09/28 16:39:09;;;;;;;8.90;8.10;;;;;;;;;;10253807;28;20048;-71
2023/09/28 16:44:06;;;;;;;10.80;9.13;;;;;;;;;;10245240;28;20045;-71
2023/09/28 16:49:03;;;;;;;9.98;8.82;;;;;;;;;;10240153;28;20080;-71
2023/09/28 16:54:02;;;;;;;9.98;8.98;;;;;;;;;;10246774;28;20053;-71
2023/09/28 16:58:58;;;;;;;10.85;9.75;;;;;;;;;;10257287;28;20056;-71
2023/09/28 17:03:54;;;;;;;12.00;8.77;;;;;;;;;;10252472;28;20578;-71
2023/09/28 17:08:53;;;;;;;10.68;9.25;;;;;;;;;;10252909;28;20037;-72
2023/09/28 17:13:50;;;;;;;11.68;9.48;;;;;;;;;;10264239;28;20090;-72
2023/09/28 17:18:46;;;;;;;12.30;9.30;;;;;;;;;;10260547;28;20119;-72
2023/09/28 17:23:43;;;;;;;10.25;8.65;;;;;;;;;;10249687;28;20520;-72
2023/09/28 17:28:41;;;;;;;14.68;8.75;;;;;;;;;;10254447;28;20122;-72
2023/09/28 17:33:37;;;;;;;13.20;8.60;;;;;;;;;;10255448;28;20057;-73
2023/09/28 17:38:34;;;;;;;10.48;9.30;;;;;;;;;;10256842;28;20068;-73
2023/09/28 17:43:30;;;;;;;12.82;9.00;;;;;;;;;;10254970;28;20037;-72
2023/09/28 17:48:26;;;;;;;11.80;8.95;;;;;;;;;;10265408;28;20052;-72
2023/09/28 17:53:23;;;;;;;11.65;10.02;;;;;;;;;;10248989;28;20115;-72
2023/09/28 17:58:21;;;;;;;11.43;9.95;;;;;;;;;;10268689;28;20449;-71
2023/09/28 18:03:18;;;;;;;12.68;9.85;;;;;;;;;;10252666;28;20080;-72
2023/09/28 18:08:14;;;;;;;13.20;9.52;;;;;;;;;;10254292;28;20085;-72
2023/09/28 18:13:12;;;;;;;13.80;9.50;;;;;;;;;;10248444;28;20159;-72
2023/09/28 18:18:08;;;;;;;11.95;9.23;;;;;;;;;;10257870;28;20138;-72
2023/09/28 18:23:05;;;;;;;13.27;9.48;;;;;;;;;;10246362;28;20041;-72
2023/09/28 18:28:01;;;;;;;13.32;10.70;;;;;;;;;;10259365;28;20045;-72
2023/09/28 18:32:57;;;;;;;10.43;9.32;;;;;;;;;;10256464;28;20045;-72
2023/09/28 18:37:55;;;;;;;13.27;9.45;;;;;;;;;;10257236;28;20042;-72
2023/09/28 18:42:51;;;;;;;12.85;10.07;;;;;;;;;;10252155;28;20065;-72
2023/09/28 18:47:48;;;;;;;12.30;10.32;;;;;;;;;;10261922;28;20615;-72
2023/09/28 18:52:45;;;;;;;12.43;10.52;;;;;;;;;;10256192;28;20463;-72
2023/09/28 18:57:42;;;;;;;13.57;10.77;;;;;;;;;;10253133;28;20711;-72
2023/09/28 19:02:39;;;;;;;12.95;10.80;;;;;;;;;;10261619;28;20057;-72
2023/09/28 19:07:36;;;;;;;11.18;10.00;;;;;;;;;;10248211;28;20045;-72
2023/09/28 19:12:32;;;;;;;15.85;10.25;;;;;;;;;;10253972;28;20593;-72
2023/09/28 19:17:29;;;;;;;15.43;10.68;;;;;;;;;;10257677;28;20516;-72
2023/09/28 19:22:25;;;;;;;12.07;10.48;;;;;;;;;;10259919;28;20501;-69
2023/09/28 19:27:24;;;;;;;16.50;11.20;;;;;;;;;;10256667;28;20041;-72
2023/09/28 19:32:34;;;;;;;;;;;;;;;;;;10252031;28;20528;-71
2023/09/28 19:37:30;;;;;;;14.30;11.18;;;;;;;;;;10260451;28;19928;-72
2023/09/28 19:42:27;;;;;;;15.00;11.13;;;;;;;;;;10259298;28;20060;-72
2023/09/28 19:47:23;;;;;;;16.77;11.65;;;;;;;;;;10262711;28;20037;-72
2023/09/28 19:52:20;;;;;;;17.50;12.05;;;;;;;;;;10261879;28;20041;-71
2023/09/28 19:57:17;;;;;;;17.25;12.05;;;;;;;;;;10261321;28;21416;-72
2023/09/28 20:02:14;;;;;;;16.10;12.00;;;;;;;;;;10271940;28;20040;-72
2023/09/28 20:07:10;;;;;;;13.18;11.75;;;;;;;;;;10265359;28;20072;-72
2023/09/28 20:12:06;;;;;;;12.98;11.55;;;;;;;;;;10263815;28;20072;-72
2023/09/28 20:17:03;;;;;;;16.83;12.75;;;;;;;;;;10250474;28;20052;-72
2023/09/28 20:22:01;;;;;;;14.48;12.45;;;;;;;;;;10252078;28;20041;-72
2023/09/28 20:26:57;;;;;;;19.05;12.65;;;;;;;;;;10257346;28;20056;-68
2023/09/28 20:31:54;;;;;;;19.63;13.35;;;;;;;;;;10264053;28;20049;-70
2023/09/28 20:36:50;;;;;;;17.25;13.45;;;;;;;;;;10268584;28;20054;-70
2023/09/28 20:41:46;;;;;;;14.90;12.77;;;;;;;;;;10262005;28;20045;-70
2023/09/28 20:46:43;;;;;;;23.15;14.20;;;;;;;;;;10271764;28;20049;-70
2023/09/28 20:51:39;;;;;;;19.90;13.65;;;;;;;;;;10253458;28;20048;-70
2023/09/28 20:56:36;;;;;;;19.45;13.60;;;;;;;;;;10260557;28;20090;-69
2023/09/28 21:01:32;;;;;;;17.70;13.65;;;;;;;;;;10265026;28;20458;-69
2023/09/28 21:06:30;;;;;;;17.05;13.57;;;;;;;;;;10261881;28;20556;-70
2023/09/28 21:11:26;;;;;;;18.15;13.30;;;;;;;;;;10248143;28;20099;-70
2023/09/28 21:16:22;;;;;;;22.45;12.63;;;;;;;;;;10259989;28;20041;-70
2023/09/28 21:21:20;;;;;;;19.25;13.48;;;;;;;;;;10248202;28;20037;-70
2023/09/28 21:26:16;;;;;;;17.42;12.48;;;;;;;;;;10258843;28;20041;-71
2023/09/28 21:31:12;;;;;;;14.48;12.98;;;;;;;;;;10257807;28;20037;-72
2023/09/28 21:36:09;;;;;;;13.85;12.40;;;;;;;;;;10253027;28;20052;-71
2023/09/28 21:41:09;;;;;;;14.50;12.20;;;;;;;;;;10263258;28;20045;-71
2023/09/28 21:46:06;;;;;;;15.07;11.70;;;;;;;;;;10255136;28;20638;-69
2023/09/28 21:51:03;;;;;;;18.98;11.13;;;;;;;;;;10262723;28;20133;-69
2023/09/28 21:55:59;;;;;;;13.52;11.30;;;;;;;;;;10253161;28;20467;-68
2023/09/28 22:00:55;;;;;;;13.73;11.52;;;;;;;;;;10251989;28;20060;-69
2023/09/28 22:05:52;;;;;;;13.82;10.77;;;;;;;;;;10254737;28;20502;-70
2023/09/28 22:10:49;;;;;;;14.38;11.05;;;;;;;;;;10264324;28;20132;-68
2023/09/28 22:15:46;;;;;;;11.20;9.90;;;;;;;;;;10249653;28;20064;-68
2023/09/28 22:20:42;;;;;;;12.00;9.93;;;;;;;;;;10261830;28;20041;-69
2023/09/28 22:25:39;;;;;;;11.70;10.10;;;;;;;;;;10265923;28;20052;-70
2023/09/28 22:30:35;;;;;;;11.13;9.98;;;;;;;;;;10254393;28;20562;-71
2023/09/28 22:35:31;;;;;;;13.02;9.88;;;;;;;;;;10267404;28;20044;-70
2023/09/28 22:40:30;;;;;;;11.07;9.93;;;;;;;;;;10254129;28;20120;-70
2023/09/28 22:45:27;;;;;;;12.75;10.75;;;;;;;;;;10250272;28;20045;-70
2023/09/28 22:50:24;;;;;;;13.80;10.63;;;;;;;;;;10263298;28;20045;-70
2023/09/28 22:55:20;;;;;;;12.23;10.20;;;;;;;;;;10251765;28;20045;-70
2023/09/28 23:00:17;;;;;;;17.38;10.35;;;;;;;;;;10260740;28;20131;-70
2023/09/28 23:05:14;;;;;;;13.30;9.60;;;;;;;;;;10268525;28;20052;-69
2023/09/28 23:10:11;;;;;;;11.32;9.50;;;;;;;;;;10268662;28;20095;-70
2023/09/28 23:15:12;;;;;;;10.30;9.20;;;;;;;;;;10255955;28;20049;-70
2023/09/28 23:20:09;;;;;;;15.93;10.55;;;;;;;;;;10262189;28;20056;-69
2023/09/28 23:25:11;;;;;;;11.75;9.18;;;;;;;;;;10250499;28;20136;-69
2023/09/28 23:30:12;;;;;;;10.70;9.50;;;;;;;;;;10269570;28;20041;-69
2023/09/28 23:35:15;;;;;;;10.38;9.27;;;;;;;;;;10256954;28;20480;-69
2023/09/28 23:40:21;;;;;;;10.57;9.25;;;;;;;;;;10258672;28;20057;-69
2023/09/28 23:45:19;;;;;;;11.50;9.88;;;;;;;;;;10253124;28;20417;-70
2023/09/28 23:50:16;;;;;;;11.60;9.20;;;;;;;;;;10249763;28;20080;-70
2023/09/28 23:55:14;;;;;;;10.50;9.07;;;;;;;;;;10266447;28;20057;-69
